createdAt,value
2022-09-30T00:04:16.468Z,40.77
2022-09-30T00:09:17.957Z,40.87
2022-09-30T00:14:20.812Z,40.64
2022-09-30T00:19:22.296Z,40.59
2022-09-30T00:24:23.785Z,40.49
2022-09-30T00:29:25.140Z,40.79
2022-09-30T00:34:26.548Z,40.65
2022-09-30T00:39:28.769Z,40.56
2022-09-30T00:45:06.117Z,40.75
2022-09-30T00:50:24.068Z,40.62
2022-09-30T00:55:54.839Z,40.62
2022-09-30T01:00:57.978Z,40.75
2022-09-30T01:05:59.347Z,40.49
2022-09-30T01:11:04.550Z,40.48
2022-09-30T01:16:12.125Z,40.68
2022-09-30T01:21:35.008Z,40.59
2022-09-30T01:26:45.644Z,40.37
2022-09-30T01:31:56.918Z,40.32
2022-09-30T01:37:12.047Z,40.28
2022-09-30T01:42:21.090Z,40.49
2022-09-30T01:47:27.091Z,40.24
2022-09-30T01:52:52.360Z,40.19
2022-09-30T01:58:08.489Z,40.49
2022-09-30T02:03:13.897Z,40.44
2022-09-30T02:08:21.384Z,40.32
2022-09-30T02:13:28.096Z,40.39
2022-09-30T02:18:34.754Z,40.52
2022-09-30T02:23:40.653Z,40.46
2022-09-30T02:28:42.320Z,40.35
2022-09-30T02:33:50.468Z,40.37
2022-09-30T02:38:58.476Z,40.22
2022-09-30T02:44:00.301Z,40.27
2022-09-30T02:49:21.565Z,40.36
2022-09-30T02:54:41.124Z,40.49
2022-09-30T02:59:42.481Z,40.43
2022-09-30T03:04:45.881Z,40.44
2022-09-30T03:09:47.320Z,40.52
2022-09-30T03:15:12.791Z,40.43
2022-09-30T03:20:52.049Z,40.66
2022-09-30T03:26:00.836Z,40.19
2022-09-30T03:31:09.515Z,40.25
2022-09-30T03:36:25.992Z,40.56
2022-09-30T03:41:35.368Z,40.29
2022-09-30T03:46:43.831Z,40.50
2022-09-30T03:51:45.230Z,40.13
2022-09-30T03:56:46.596Z,40.39
2022-09-30T04:01:48.037Z,40.26
2022-09-30T04:06:49.424Z,40.40
2022-09-30T04:11:50.781Z,40.32
2022-09-30T04:16:54.009Z,40.43
2022-09-30T04:21:55.542Z,40.20
2022-09-30T04:26:56.920Z,40.36
2022-09-30T04:31:58.320Z,40.47
2022-09-30T04:36:59.728Z,40.43
2022-09-30T04:42:01.085Z,40.12
2022-09-30T04:47:02.484Z,39.99
2022-09-30T04:52:03.849Z,39.68
2022-09-30T04:57:05.210Z,39.57
2022-09-30T05:02:06.648Z,39.08
2022-09-30T05:07:08.825Z,39.09
2022-09-30T05:12:10.233Z,38.68
2022-09-30T05:17:11.618Z,38.73
2022-09-30T05:22:14.248Z,38.61
2022-09-30T05:27:15.604Z,38.37
2022-09-30T05:32:18.110Z,38.22
2022-09-30T05:37:19.569Z,38.26
2022-09-30T05:42:20.921Z,38.05
2022-09-30T05:47:23.900Z,38.06
2022-09-30T05:52:25.429Z,38.13
2022-09-30T05:57:30.018Z,38.06
2022-09-30T06:02:31.486Z,38.02
2022-09-30T06:07:34.622Z,38.10
2022-09-30T06:12:37.057Z,38.03
2022-09-30T06:17:38.468Z,38.02
2022-09-30T06:22:39.824Z,38.23
2022-09-30T06:27:44.632Z,37.71
2022-09-30T06:32:46.051Z,37.29
2022-09-30T06:37:50.645Z,37.37
2022-09-30T06:42:52.072Z,36.95
2022-09-30T06:48:01.096Z,37.13
2022-09-30T06:53:05.988Z,37.12
2022-09-30T06:58:09.592Z,37.40
2022-09-30T07:03:21.802Z,37.78
2022-09-30T07:08:25.684Z,37.58
2022-09-30T07:13:27.079Z,37.43
2022-09-30T07:18:28.509Z,37.58
2022-09-30T07:23:30.128Z,37.56
2022-09-30T07:28:33.791Z,37.42
2022-09-30T07:33:35.473Z,37.56
2022-09-30T07:38:38.178Z,37.45
2022-09-30T07:43:39.918Z,37.43
2022-09-30T07:48:47.959Z,37.50
2022-09-30T07:53:55.593Z,37.26
2022-09-30T07:58:59.521Z,37.38
2022-09-30T08:04:02.649Z,37.60
2022-09-30T08:09:04.254Z,37.40
2022-09-30T08:14:05.726Z,37.55
2022-09-30T08:19:07.401Z,37.69
2022-09-30T08:24:09.191Z,37.78
2022-09-30T08:29:20.114Z,37.64
2022-09-30T08:34:22.272Z,37.51
2022-09-30T08:39:23.633Z,37.72
2022-09-30T08:44:38.611Z,37.61
2022-09-30T08:49:46.745Z,37.82
2022-09-30T08:54:50.285Z,37.74
2022-09-30T09:00:00.086Z,37.74
2022-09-30T09:05:02.483Z,38.45
2022-09-30T09:10:23.965Z,38.13
2022-09-30T09:16:05.453Z,38.32
2022-09-30T09:21:19.741Z,38.25
2022-09-30T09:26:21.097Z,38.42
2022-09-30T09:31:22.537Z,38.58
2022-09-30T09:36:31.518Z,38.85
2022-09-30T09:42:05.170Z,38.96
2022-09-30T09:47:15.162Z,38.94
2022-09-30T09:52:55.993Z,38.41
2022-09-30T09:58:07.886Z,38.90
2022-09-30T10:03:19.586Z,38.47
2022-09-30T10:08:21.641Z,38.27
2022-09-30T10:13:27.109Z,37.85
2022-09-30T10:18:36.000Z,37.69
2022-09-30T10:23:40.661Z,37.28
2022-09-30T10:28:50.123Z,37.63
2022-09-30T10:34:09.637Z,36.58
2022-09-30T10:39:26.566Z,36.55
2022-09-30T10:44:28.041Z,36.76
2022-09-30T10:49:52.208Z,36.21
2022-09-30T10:54:57.772Z,36.63
2022-09-30T11:00:00.892Z,36.80
2022-09-30T11:05:07.393Z,36.52
2022-09-30T11:10:21.582Z,36.68
2022-09-30T11:15:25.910Z,37.26
2022-09-30T11:20:51.841Z,37.05
2022-09-30T11:25:54.843Z,36.39
2022-09-30T11:31:08.172Z,36.23
2022-09-30T11:36:34.422Z,35.78
2022-09-30T11:41:38.608Z,36.74
2022-09-30T11:47:04.791Z,36.99
2022-09-30T11:52:13.152Z,36.48
2022-09-30T11:57:21.269Z,36.55
2022-09-30T12:02:28.631Z,36.66
2022-09-30T12:07:43.243Z,36.46
2022-09-30T12:12:44.617Z,35.98
2022-09-30T12:17:48.382Z,36.45
2022-09-30T12:22:50.909Z,36.35
2022-09-30T12:28:42.010Z,36.23
2022-09-30T12:33:54.495Z,36.04
2022-09-30T12:39:14.816Z,36.37
2022-09-30T12:44:34.817Z,37.21
2022-09-30T12:49:37.774Z,36.83
2022-09-30T12:55:10.442Z,36.78
2022-09-30T13:00:22.589Z,36.74
2022-09-30T13:05:26.900Z,36.78
2022-09-30T13:10:30.353Z,36.86
2022-09-30T13:15:31.565Z,37.05
2022-09-30T13:20:56.411Z,36.91
2022-09-30T13:25:57.789Z,37.15
2022-09-30T13:31:18.876Z,37.14
2022-09-30T13:36:28.553Z,37.18
2022-09-30T13:41:30.082Z,37.23
2022-09-30T13:46:43.462Z,37.27
2022-09-30T13:51:44.857Z,37.33
2022-09-30T13:56:46.220Z,37.42
2022-09-30T14:02:22.280Z,37.37
2022-09-30T14:07:36.987Z,37.36
2022-09-30T14:12:57.442Z,37.34
2022-09-30T14:18:24.721Z,37.43
2022-09-30T14:23:47.469Z,37.30
2022-09-30T14:28:57.841Z,37.25
2022-09-30T14:33:59.210Z,37.55
2022-09-30T14:39:00.568Z,37.54
2022-09-30T14:44:08.512Z,37.50
2022-09-30T14:49:13.275Z,37.48
2022-09-30T14:54:22.466Z,37.61
2022-09-30T14:59:31.597Z,37.46
2022-09-30T15:04:34.426Z,37.51
2022-09-30T15:09:37.362Z,37.65
2022-09-30T15:14:49.252Z,37.63
2022-09-30T15:19:50.684Z,37.61
2022-09-30T15:24:52.094Z,37.68
2022-09-30T15:30:04.531Z,37.77
2022-09-30T15:35:07.133Z,37.66
2022-09-30T15:40:40.172Z,37.81
2022-09-30T15:45:45.173Z,37.81
2022-09-30T15:50:48.725Z,37.71
2022-09-30T15:55:51.093Z,37.80
2022-09-30T16:01:11.616Z,37.79
2022-09-30T16:06:13.853Z,37.83
2022-09-30T16:11:36.417Z,37.69
2022-09-30T16:16:38.136Z,37.94
2022-09-30T16:21:44.637Z,37.95
2022-09-30T16:26:45.988Z,38.11
2022-09-30T16:31:49.341Z,38.24
2022-09-30T16:36:50.730Z,38.65
2022-09-30T16:41:54.126Z,38.71
2022-09-30T16:46:55.488Z,38.89
2022-09-30T16:51:56.849Z,38.98
2022-09-30T16:57:00.285Z,39.15
2022-09-30T17:02:03.257Z,39.19
2022-09-30T17:07:04.620Z,39.39
2022-09-30T17:12:06.001Z,39.58
2022-09-30T17:17:12.413Z,39.62
2022-09-30T17:22:14.748Z,39.65
2022-09-30T17:27:16.165Z,40.05
2022-09-30T17:32:17.516Z,40.03
2022-09-30T17:37:19.810Z,40.17
2022-09-30T17:42:39.634Z,40.07
2022-09-30T17:47:41.869Z,40.18
2022-09-30T17:52:43.231Z,40.12
2022-09-30T17:57:44.597Z,40.14
2022-09-30T18:02:46.024Z,40.27
2022-09-30T18:07:47.408Z,40.21
2022-09-30T18:12:49.274Z,40.23
2022-09-30T18:17:50.670Z,40.17
2022-09-30T18:22:52.024Z,40.33
2022-09-30T18:27:57.343Z,40.24
2022-09-30T18:32:58.982Z,40.18
2022-09-30T18:38:00.340Z,40.38
2022-09-30T18:43:02.577Z,40.34
2022-09-30T18:48:04.312Z,40.50
2022-09-30T18:53:09.397Z,40.31
2022-09-30T18:58:11.500Z,40.47
2022-09-30T19:03:15.961Z,40.27
2022-09-30T19:08:17.327Z,40.50
2022-09-30T19:13:18.731Z,40.41
2022-09-30T19:18:21.073Z,40.51
2022-09-30T19:23:22.458Z,40.43
2022-09-30T19:28:23.921Z,40.52
2022-09-30T19:33:26.032Z,40.39
2022-09-30T19:38:37.354Z,40.59
2022-09-30T19:43:42.460Z,40.65
2022-09-30T19:48:43.900Z,40.56
2022-09-30T19:54:00.275Z,40.47
2022-09-30T19:59:07.092Z,40.44
2022-09-30T20:04:09.076Z,40.58
2022-09-30T20:09:11.457Z,40.39
2022-09-30T20:14:31.304Z,40.31
2022-09-30T20:19:32.659Z,40.18
2022-09-30T20:24:34.032Z,40.41
2022-09-30T20:29:35.389Z,40.22
2022-09-30T20:34:38.914Z,40.10
2022-09-30T20:39:42.073Z,40.04
2022-09-30T20:44:43.742Z,39.98
2022-09-30T20:49:45.096Z,39.88
2022-09-30T20:54:46.650Z,39.79
2022-09-30T20:59:48.025Z,39.98
2022-09-30T21:04:52.617Z,39.98
2022-09-30T21:09:54.109Z,40.09
2022-09-30T21:14:55.887Z,39.87
2022-09-30T21:19:57.248Z,40.19
2022-09-30T21:24:58.612Z,39.97
2022-09-30T21:30:00.027Z,40.24
2022-09-30T21:35:01.408Z,40.22
2022-09-30T21:40:02.768Z,40.34
2022-09-30T21:45:04.787Z,40.29
2022-09-30T21:50:06.700Z,40.15
2022-09-30T22:00:10.009Z,40.22
2022-09-30T22:05:11.369Z,40.29
2022-09-30T22:10:12.744Z,40.39
2022-09-30T22:15:14.127Z,40.36
2022-09-30T22:20:15.888Z,40.25
2022-09-30T22:25:17.348Z,40.47
2022-09-30T22:30:18.704Z,40.41
2022-09-30T22:35:38.589Z,40.55
2022-09-30T22:40:40.043Z,40.51
2022-09-30T22:45:43.802Z,40.50
2022-09-30T22:50:45.225Z,40.53
2022-09-30T22:55:46.577Z,40.45
2022-09-30T23:00:54.224Z,40.29
2022-09-30T23:06:02.236Z,40.44
2022-09-30T23:11:03.614Z,40.58
2022-09-30T23:16:06.052Z,40.57
2022-09-30T23:21:09.930Z,40.58
2022-09-30T23:26:18.857Z,40.59
2022-09-30T23:31:20.494Z,40.68
2022-09-30T23:36:30.507Z,40.64
2022-09-30T23:41:32.197Z,40.72
2022-09-30T23:46:33.893Z,41.04
2022-09-30T23:51:35.640Z,41.00
2022-09-30T23:56:37.461Z,40.58
